[2025-01-13 00:00:00, 2025-01-13 23:59:59] previous next
| time | temperature | air pressure | humidity | solar radiation | wind speed |
|---|---|---|---|---|---|
| 2025-01-13 08:27:25 | -2.5 | 1033.3 | 99.0 | 11.1 | 0.0 |
| 2025-01-13 08:47:25 | -1.3 | 1033.7 | 99.0 | 18.3 | 0.0 |
| 2025-01-13 09:07:24 | -0.6 | 1033.7 | 99.0 | 22.0 | 0.0 |
| 2025-01-13 09:27:25 | -0.8 | 1034.0 | 99.0 | 24.7 | 0.0 |
| 2025-01-13 09:47:24 | 0.9 | 1034.0 | 99.0 | 28.0 | 0.0 |
| 2025-01-13 10:07:25 | 1.8 | 1034.0 | 99.0 | 28.8 | 0.0 |
| 2025-01-13 10:27:25 | 0.6 | 1034.0 | 99.0 | 31.7 | 0.4 |
| 2025-01-13 10:47:25 | 1.3 | 1033.7 | 99.0 | 34.6 | 0.0 |
| 2025-01-13 11:07:24 | 1.2 | 1033.7 | 99.0 | 37.3 | 0.6 |
| 2025-01-13 11:27:25 | 0.5 | 1033.7 | 99.0 | 38.7 | 0.0 |
| 2025-01-13 11:47:24 | 0.7 | 1033.3 | 99.0 | 134.8 | 0.0 |
| 2025-01-13 12:07:24 | 0.6 | 1033.0 | 99.0 | 168.1 | 0.0 |
| 2025-01-13 12:27:25 | 1.0 | 1032.6 | 99.0 | 200.0 | 0.0 |
| 2025-01-13 12:47:24 | 2.3 | 1032.6 | 99.0 | 213.3 | 0.0 |
| 2025-01-13 13:07:25 | 3.5 | 1032.3 | 85.0 | 210.1 | 0.0 |
| 2025-01-13 13:27:24 | 6.1 | 1032.0 | 70.0 | 209.9 | 0.4 |
| 2025-01-13 13:47:25 | 5.2 | 1032.0 | 70.0 | 197.9 | 0.0 |
| 2025-01-13 14:07:25 | 3.3 | 1032.0 | 74.0 | 178.9 | 0.0 |
| 2025-01-13 14:27:25 | 3.2 | 1031.6 | 70.0 | 153.8 | 0.0 |
| 2025-01-13 14:47:30 | 3.4 | 1031.6 | 71.0 | 125.4 | 0.1 |
| 2025-01-13 15:07:25 | 3.2 | 1031.6 | 73.0 | 93.0 | 0.0 |
CSV export: /station/IWELLEN5/data?period=20250113T000000/20250113T235959&format=csv&tz=GMT